createdAt,value
2017-09-03T00:03:51.989Z,45.6
2017-09-03T00:08:56.388Z,45.6
2017-09-03T00:14:01.791Z,45.7
2017-09-03T00:19:07.526Z,45.6
2017-09-03T00:24:12.598Z,45.7
2017-09-03T00:29:17.666Z,45.6
2017-09-03T00:34:22.731Z,45.5
2017-09-03T00:39:28.803Z,45.6
2017-09-03T00:44:33.869Z,45.6
2017-09-03T00:49:38.607Z,45.6
2017-09-03T00:54:44.012Z,45.6
2017-09-03T00:59:49.772Z,45.6
2017-09-03T01:04:55.153Z,45.6
2017-09-03T01:10:00.550Z,45.7
2017-09-03T01:15:05.616Z,45.6
2017-09-03T01:20:11.361Z,45.6
2017-09-03T01:25:16.098Z,45.7
2017-09-03T01:30:21.184Z,45.9
2017-09-03T01:35:26.254Z,46.1
2017-09-03T01:40:31.649Z,46.1
2017-09-03T01:45:36.718Z,46.1
2017-09-03T01:50:41.783Z,46.2
2017-09-03T01:55:47.191Z,46.1
2017-09-03T02:00:51.927Z,46.1
2017-09-03T02:05:56.660Z,46.1
2017-09-03T02:11:02.059Z,46.1
2017-09-03T02:16:07.459Z,46.1
2017-09-03T02:21:12.193Z,46.1
2017-09-03T02:26:17.595Z,46.1
2017-09-03T02:31:21.996Z,46.1
2017-09-03T02:36:27.730Z,46.1
2017-09-03T02:41:32.795Z,46
2017-09-03T02:46:38.865Z,45.9
2017-09-03T02:51:43.933Z,45.9
2017-09-03T02:56:48.664Z,45.8
2017-09-03T03:01:54.394Z,45.7
2017-09-03T03:06:59.793Z,45.7
2017-09-03T03:12:05.864Z,45.6
2017-09-03T03:17:10.594Z,45.6
2017-09-03T03:22:15.662Z,45.6
2017-09-03T03:27:21.059Z,45.6
2017-09-03T03:32:26.800Z,45.6
2017-09-03T03:37:32.199Z,45.6
2017-09-03T03:42:37.601Z,45.5
2017-09-03T03:47:42.666Z,45.6
2017-09-03T03:52:48.738Z,45.5
2017-09-03T03:57:54.139Z,45.5
2017-09-03T04:02:59.910Z,45.5
2017-09-03T04:08:05.329Z,45.5
2017-09-03T04:13:10.388Z,45.6
2017-09-03T04:18:15.118Z,45.6
2017-09-03T04:23:20.521Z,45.6
2017-09-03T04:28:25.926Z,45.5
2017-09-03T04:33:30.660Z,45.5
2017-09-03T04:38:36.756Z,45.5
2017-09-03T04:43:42.154Z,45.5
2017-09-03T04:48:47.220Z,45.5
2017-09-03T04:53:52.969Z,45.4
2017-09-03T04:58:58.375Z,45.4
2017-09-03T05:04:03.810Z,45.4
2017-09-03T05:09:09.898Z,45.3
2017-09-03T05:14:14.968Z,45.3
2017-09-03T05:19:20.037Z,45.3
2017-09-03T05:24:24.771Z,45.2
2017-09-03T05:29:30.174Z,45.2
2017-09-03T05:34:35.242Z,45.2
2017-09-03T05:39:39.977Z,45.1
2017-09-03T05:44:45.379Z,45
2017-09-03T05:49:51.113Z,45
2017-09-03T05:54:56.179Z,44.9
2017-09-03T06:00:01.268Z,44.7
2017-09-03T06:05:07.396Z,44.5
2017-09-03T06:10:13.172Z,44.5
2017-09-03T06:15:18.247Z,44.4
2017-09-03T06:20:23.668Z,44.3
2017-09-03T06:25:28.749Z,44.2
2017-09-03T06:30:33.820Z,44.1
2017-09-03T06:35:38.891Z,44.1
2017-09-03T06:40:43.984Z,43.8
2017-09-03T06:45:49.397Z,43.6
2017-09-03T06:50:54.136Z,43.4
2017-09-03T06:55:58.869Z,43.3
2017-09-03T07:01:04.274Z,43.1
2017-09-03T07:06:09.346Z,43
2017-09-03T07:11:14.423Z,43.1
2017-09-03T07:16:19.858Z,43.2
2017-09-03T07:21:25.624Z,42.9
2017-09-03T07:26:30.563Z,42.5
2017-09-03T07:31:36.310Z,41.9
2017-09-03T07:36:40.737Z,41.3
2017-09-03T07:41:45.844Z,40.2
2017-09-03T07:46:51.169Z,39.7
2017-09-03T07:51:55.572Z,39.5
2017-09-03T07:57:01.323Z,39
2017-09-03T08:02:06.939Z,38.8
2017-09-03T08:07:12.017Z,38.4
2017-09-03T08:12:17.433Z,38.1
2017-09-03T08:17:22.514Z,37.8
2017-09-03T08:22:27.601Z,37.3
2017-09-03T08:27:32.692Z,36.8
2017-09-03T08:32:38.138Z,36.2
2017-09-03T08:37:43.216Z,35.5
2017-09-03T08:42:47.639Z,35.1
2017-09-03T08:47:53.074Z,34.7
2017-09-03T08:52:57.833Z,34.6
2017-09-03T08:58:03.629Z,34.7
2017-09-03T09:03:09.398Z,34.7
2017-09-03T09:08:15.164Z,34.7
2017-09-03T09:13:20.259Z,35.7
2017-09-03T09:18:25.694Z,35.7
2017-09-03T09:23:30.127Z,35.6
2017-09-03T09:28:35.224Z,35.3
2017-09-03T09:33:40.648Z,35
2017-09-03T09:38:45.746Z,35.1
2017-09-03T09:43:50.850Z,34.5
2017-09-03T09:48:56.616Z,34.1
2017-09-03T09:54:01.388Z,32.7
2017-09-03T09:59:06.492Z,32.5
2017-09-03T10:04:11.919Z,32.6
2017-09-03T10:09:17.350Z,32.6
2017-09-03T10:14:22.444Z,32.8
2017-09-03T10:19:27.875Z,29.8
2017-09-03T10:24:32.296Z,28.1
2017-09-03T10:29:38.058Z,29.9
2017-09-03T10:34:43.148Z,28.8
2017-09-03T10:39:47.563Z,29.5
2017-09-03T10:44:51.975Z,29.2
2017-09-03T10:49:57.723Z,31
2017-09-03T10:55:03.138Z,32
2017-09-03T11:00:08.233Z,31.5
2017-09-03T11:05:14.319Z,28.4
2017-09-03T11:10:19.740Z,27.6
2017-09-03T11:15:25.489Z,29.7
2017-09-03T11:20:30.897Z,32
2017-09-03T11:25:36.981Z,34
2017-09-03T11:30:42.385Z,31.7
2017-09-03T11:35:48.136Z,30.6
2017-09-03T11:40:53.578Z,31.3
2017-09-03T11:45:59.519Z,30.8
2017-09-03T11:51:04.926Z,29.2
2017-09-03T11:56:10.001Z,29.1
2017-09-03T12:01:15.743Z,31
2017-09-03T12:06:20.816Z,31.1
2017-09-03T12:11:25.897Z,32.2
2017-09-03T12:16:31.631Z,32
2017-09-03T12:21:36.700Z,30.9
2017-09-03T12:26:41.770Z,32.5
2017-09-03T12:31:47.174Z,32
2017-09-03T12:36:52.584Z,32
2017-09-03T12:41:57.659Z,32.3
2017-09-03T12:47:02.391Z,32.6
2017-09-03T12:52:07.465Z,33.1
2017-09-03T12:57:12.537Z,33
2017-09-03T13:02:17.271Z,32.6
2017-09-03T13:07:22.682Z,32.2
2017-09-03T13:12:28.761Z,32.4
2017-09-03T13:17:34.501Z,32.8
2017-09-03T13:22:39.574Z,33.5
2017-09-03T13:27:45.311Z,34.1
2017-09-03T13:32:50.387Z,34.4
2017-09-03T13:37:55.453Z,33.9
2017-09-03T13:42:59.850Z,34.5
2017-09-03T13:48:05.249Z,34.2
2017-09-03T13:53:10.325Z,33.9
2017-09-03T13:58:15.056Z,33.7
2017-09-03T14:03:20.463Z,35.1
2017-09-03T14:08:26.248Z,34.5
2017-09-03T14:13:30.311Z,34.4
2017-09-03T14:18:35.375Z,35.4
2017-09-03T14:23:40.104Z,35.3
2017-09-03T14:28:44.838Z,34.9
2017-09-03T14:33:50.243Z,34.7
2017-09-03T14:38:54.639Z,34.5
2017-09-03T14:44:00.044Z,34.5
2017-09-03T14:49:05.782Z,34.7
2017-09-03T14:54:11.527Z,35.2
2017-09-03T14:59:16.602Z,35.5
2017-09-03T15:04:21.674Z,35.5
2017-09-03T15:09:27.132Z,35.4
2017-09-03T15:14:31.873Z,35.2
2017-09-03T15:19:37.305Z,35.3
2017-09-03T15:24:43.015Z,35.3
2017-09-03T15:29:48.754Z,35.2
2017-09-03T15:34:53.488Z,35.6
2017-09-03T15:39:58.888Z,35.9
2017-09-03T15:45:04.967Z,36.1
2017-09-03T15:50:09.703Z,36.2
2017-09-03T15:55:14.500Z,36.6
2017-09-03T16:00:19.900Z,37
2017-09-03T16:05:24.966Z,37.1
2017-09-03T16:10:30.038Z,37.2
2017-09-03T16:15:35.450Z,37.3
2017-09-03T16:20:41.185Z,37.5
2017-09-03T16:25:46.259Z,37.6
2017-09-03T16:30:50.993Z,37.7
2017-09-03T16:35:55.731Z,38.5
2017-09-03T16:41:00.799Z,39.1
2017-09-03T16:46:05.537Z,39
2017-09-03T16:51:11.280Z,38.8
2017-09-03T16:56:16.689Z,38.7
2017-09-03T17:01:22.094Z,38.6
2017-09-03T17:06:27.832Z,38.5
2017-09-03T17:11:33.575Z,38.5
2017-09-03T17:16:37.973Z,38.6
2017-09-03T17:21:43.713Z,38.8
2017-09-03T17:26:48.779Z,39
2017-09-03T17:31:54.179Z,39
2017-09-03T17:36:59.588Z,38.9
2017-09-03T17:42:04.328Z,39.5
2017-09-03T17:47:10.405Z,40.4
2017-09-03T17:52:15.468Z,40.5
2017-09-03T17:57:19.877Z,39.6
2017-09-03T18:02:25.280Z,39.5
2017-09-03T18:07:30.016Z,39.4
2017-09-03T18:12:35.087Z,39.2
2017-09-03T18:17:40.830Z,39.2
2017-09-03T18:22:46.229Z,39.3
2017-09-03T18:27:51.633Z,39.3
2017-09-03T18:32:57.033Z,39.4
2017-09-03T18:38:02.464Z,40.2
2017-09-03T18:43:06.878Z,41.1
2017-09-03T18:48:11.612Z,41.6
2017-09-03T18:53:16.676Z,42.5
2017-09-03T18:58:22.079Z,42.7
2017-09-03T19:03:27.481Z,42.7
2017-09-03T19:08:32.212Z,42.5
2017-09-03T19:13:37.624Z,42.4
2017-09-03T19:18:42.709Z,42.2
2017-09-03T19:23:47.801Z,41.9
2017-09-03T19:28:53.184Z,41.7
2017-09-03T19:33:58.259Z,41.6
2017-09-03T19:39:03.331Z,41.6
2017-09-03T19:44:08.730Z,41.5
2017-09-03T19:49:13.463Z,41.5
2017-09-03T19:54:18.865Z,41.5
2017-09-03T19:59:23.595Z,41.5
2017-09-03T20:04:28.993Z,41.4
2017-09-03T20:09:34.739Z,41.4
2017-09-03T20:14:39.808Z,41.3
2017-09-03T20:19:45.543Z,41.2
2017-09-03T20:24:50.610Z,41.2
2017-09-03T20:29:55.681Z,41.2
2017-09-03T20:35:01.419Z,41.1
2017-09-03T20:40:07.167Z,41.1
2017-09-03T20:45:11.901Z,41.1
2017-09-03T20:50:15.959Z,41.2
2017-09-03T20:55:21.037Z,41.2
2017-09-03T21:00:27.121Z,41.2
2017-09-03T21:05:32.834Z,41.2
2017-09-03T21:10:37.901Z,41.2
2017-09-03T21:15:42.634Z,41.2
2017-09-03T21:20:48.035Z,41.2
2017-09-03T21:25:53.098Z,41.2
2017-09-03T21:30:58.500Z,41.2
2017-09-03T21:36:03.238Z,41.3
2017-09-03T21:41:08.983Z,41.5
2017-09-03T21:46:14.715Z,41.6
2017-09-03T21:51:19.790Z,41.6
2017-09-03T21:56:25.184Z,41.6
2017-09-03T22:01:30.921Z,41.7
2017-09-03T22:06:35.656Z,41.7
2017-09-03T22:11:40.719Z,41.7
2017-09-03T22:16:46.120Z,41.7
2017-09-03T22:21:51.194Z,41.7
2017-09-03T22:26:57.264Z,41.7
2017-09-03T22:32:01.663Z,41.8
2017-09-03T22:37:07.063Z,41.7
2017-09-03T22:42:11.792Z,41.8
2017-09-03T22:47:17.192Z,41.8
2017-09-03T22:52:22.271Z,41.8
2017-09-03T22:57:27.338Z,41.8
2017-09-03T23:02:32.401Z,41.8
2017-09-03T23:07:37.805Z,41.9
2017-09-03T23:12:42.200Z,41.9
2017-09-03T23:17:46.934Z,41.9
2017-09-03T23:22:51.659Z,41.9
2017-09-03T23:27:56.057Z,41.8
2017-09-03T23:33:01.125Z,41.9
2017-09-03T23:38:05.856Z,41.8
2017-09-03T23:43:11.259Z,41.9
2017-09-03T23:48:16.325Z,41.9
2017-09-03T23:53:21.727Z,41.9
2017-09-03T23:58:26.791Z,41.9
